sensor_id;sensor_type;location;lat;lon;timestamp;P1;durP1;ratioP1;P2;durP2;ratioP2
19940;SDS011;10132;50.864;5.176;2024-03-17T00:01:56;372.87;;;350.23;;
19940;SDS011;10132;50.864;5.176;2024-03-17T00:03:58;315.47;;;297.87;;
19940;SDS011;10132;50.864;5.176;2024-03-17T00:06:01;334.40;;;314.73;;
19940;SDS011;10132;50.864;5.176;2024-03-17T00:08:02;323.63;;;305.10;;
19940;SDS011;10132;50.864;5.176;2024-03-17T00:10:05;231.70;;;218.83;;
19940;SDS011;10132;50.864;5.176;2024-03-17T00:12:07;272.90;;;257.67;;
19940;SDS011;10132;50.864;5.176;2024-03-17T00:14:10;363.87;;;342.10;;
19940;SDS011;10132;50.864;5.176;2024-03-17T00:16:11;450.53;;;423.30;;
19940;SDS011;10132;50.864;5.176;2024-03-17T00:18:14;369.07;;;347.87;;
19940;SDS011;10132;50.864;5.176;2024-03-17T00:20:16;401.07;;;377.27;;
19940;SDS011;10132;50.864;5.176;2024-03-17T00:22:20;391.93;;;368.13;;
19940;SDS011;10132;50.864;5.176;2024-03-17T00:24:21;395.43;;;371.63;;
19940;SDS011;10132;50.864;5.176;2024-03-17T00:26:24;468.20;;;437.37;;
19940;SDS011;10132;50.864;5.176;2024-03-17T00:28:25;512.93;;;478.87;;
19940;SDS011;10132;50.864;5.176;2024-03-17T00:30:27;443.40;;;416.17;;
19940;SDS011;10132;50.864;5.176;2024-03-17T00:32:28;442.87;;;416.50;;
19940;SDS011;10132;50.864;5.176;2024-03-17T00:34:30;499.50;;;467.83;;
19940;SDS011;10132;50.864;5.176;2024-03-17T00:36:32;457.77;;;430.50;;
19940;SDS011;10132;50.864;5.176;2024-03-17T00:38:34;350.77;;;331.17;;
19940;SDS011;10132;50.864;5.176;2024-03-17T00:40:35;379.57;;;357.53;;
19940;SDS011;10132;50.864;5.176;2024-03-17T00:42:37;369.47;;;348.37;;
19940;SDS011;10132;50.864;5.176;2024-03-17T00:44:38;273.93;;;258.73;;
19940;SDS011;10132;50.864;5.176;2024-03-17T00:46:40;346.63;;;326.07;;
19940;SDS011;10132;50.864;5.176;2024-03-17T00:48:42;517.83;;;485.50;;
19940;SDS011;10132;50.864;5.176;2024-03-17T00:50:44;572.00;;;535.33;;
19940;SDS011;10132;50.864;5.176;2024-03-17T00:52:46;460.90;;;431.37;;
19940;SDS011;10132;50.864;5.176;2024-03-17T00:54:48;542.13;;;505.00;;
19940;SDS011;10132;50.864;5.176;2024-03-17T00:56:49;519.70;;;485.67;;
19940;SDS011;10132;50.864;5.176;2024-03-17T00:58:51;570.93;;;530.10;;
19940;SDS011;10132;50.864;5.176;2024-03-17T01:00:52;522.80;;;486.17;;
19940;SDS011;10132;50.864;5.176;2024-03-17T01:02:54;527.47;;;490.63;;
19940;SDS011;10132;50.864;5.176;2024-03-17T01:04:56;499.23;;;464.53;;
19940;SDS011;10132;50.864;5.176;2024-03-17T01:06:58;514.90;;;481.47;;
19940;SDS011;10132;50.864;5.176;2024-03-17T01:09:00;514.67;;;480.00;;
19940;SDS011;10132;50.864;5.176;2024-03-17T01:11:02;562.77;;;524.07;;
19940;SDS011;10132;50.864;5.176;2024-03-17T01:13:03;510.63;;;476.67;;
19940;SDS011;10132;50.864;5.176;2024-03-17T01:15:07;512.23;;;480.03;;
19940;SDS011;10132;50.864;5.176;2024-03-17T01:17:09;495.97;;;465.93;;
19940;SDS011;10132;50.864;5.176;2024-03-17T01:19:11;443.13;;;415.60;;
19940;SDS011;10132;50.864;5.176;2024-03-17T01:21:11;389.30;;;366.43;;
19940;SDS011;10132;50.864;5.176;2024-03-17T01:23:13;377.50;;;354.93;;
19940;SDS011;10132;50.864;5.176;2024-03-17T01:25:16;492.40;;;461.83;;
19940;SDS011;10132;50.864;5.176;2024-03-17T01:27:18;463.87;;;436.20;;
19940;SDS011;10132;50.864;5.176;2024-03-17T01:29:19;484.87;;;454.20;;
19940;SDS011;10132;50.864;5.176;2024-03-17T01:31:21;418.03;;;391.90;;
19940;SDS011;10132;50.864;5.176;2024-03-17T01:33:22;420.63;;;395.23;;
19940;SDS011;10132;50.864;5.176;2024-03-17T01:35:24;456.90;;;429.67;;
19940;SDS011;10132;50.864;5.176;2024-03-17T01:37:25;463.20;;;434.87;;
19940;SDS011;10132;50.864;5.176;2024-03-17T01:39:27;487.43;;;457.00;;
19940;SDS011;10132;50.864;5.176;2024-03-17T01:41:29;457.47;;;430.20;;
19940;SDS011;10132;50.864;5.176;2024-03-17T01:43:31;521.13;;;485.63;;
19940;SDS011;10132;50.864;5.176;2024-03-17T01:45:32;580.20;;;536.27;;
19940;SDS011;10132;50.864;5.176;2024-03-17T01:47:34;498.47;;;464.90;;
19940;SDS011;10132;50.864;5.176;2024-03-17T01:49:35;442.20;;;415.17;;
19940;SDS011;10132;50.864;5.176;2024-03-17T01:51:38;422.53;;;396.70;;
19940;SDS011;10132;50.864;5.176;2024-03-17T01:53:39;441.40;;;414.80;;
19940;SDS011;10132;50.864;5.176;2024-03-17T01:55:43;449.87;;;420.60;;
19940;SDS011;10132;50.864;5.176;2024-03-17T01:57:46;460.73;;;430.27;;
19940;SDS011;10132;50.864;5.176;2024-03-17T01:59:48;442.43;;;412.57;;
19940;SDS011;10132;50.864;5.176;2024-03-17T02:01:49;420.70;;;396.03;;
19940;SDS011;10132;50.864;5.176;2024-03-17T02:03:52;404.43;;;380.33;;
19940;SDS011;10132;50.864;5.176;2024-03-17T02:05:53;329.77;;;311.47;;
19940;SDS011;10132;50.864;5.176;2024-03-17T02:07:55;427.93;;;397.73;;
19940;SDS011;10132;50.864;5.176;2024-03-17T02:09:56;450.43;;;420.63;;
19940;SDS011;10132;50.864;5.176;2024-03-17T02:11:58;489.50;;;457.73;;
19940;SDS011;10132;50.864;5.176;2024-03-17T02:14:00;414.53;;;389.13;;
19940;SDS011;10132;50.864;5.176;2024-03-17T02:16:03;392.87;;;366.67;;
19940;SDS011;10132;50.864;5.176;2024-03-17T02:18:04;360.50;;;338.43;;
19940;SDS011;10132;50.864;5.176;2024-03-17T02:20:06;385.03;;;358.83;;
19940;SDS011;10132;50.864;5.176;2024-03-17T02:22:11;446.70;;;417.83;;
19940;SDS011;10132;50.864;5.176;2024-03-17T02:24:14;384.13;;;359.87;;
19940;SDS011;10132;50.864;5.176;2024-03-17T02:26:15;408.13;;;383.37;;
19940;SDS011;10132;50.864;5.176;2024-03-17T02:28:17;387.23;;;364.47;;
19940;SDS011;10132;50.864;5.176;2024-03-17T02:30:19;360.20;;;339.43;;
19940;SDS011;10132;50.864;5.176;2024-03-17T02:32:21;404.97;;;380.47;;
19940;SDS011;10132;50.864;5.176;2024-03-17T02:34:22;358.93;;;337.97;;
19940;SDS011;10132;50.864;5.176;2024-03-17T02:36:25;280.80;;;265.43;;
19940;SDS011;10132;50.864;5.176;2024-03-17T02:38:28;352.13;;;332.23;;
19940;SDS011;10132;50.864;5.176;2024-03-17T02:40:47;378.57;;;355.87;;
19940;SDS011;10132;50.864;5.176;2024-03-17T02:42:49;407.80;;;384.20;;
19940;SDS011;10132;50.864;5.176;2024-03-17T02:44:51;446.23;;;420.17;;
19940;SDS011;10132;50.864;5.176;2024-03-17T02:46:52;481.30;;;452.10;;
19940;SDS011;10132;50.864;5.176;2024-03-17T02:48:53;463.37;;;435.40;;
19940;SDS011;10132;50.864;5.176;2024-03-17T02:50:56;457.77;;;430.10;;
19940;SDS011;10132;50.864;5.176;2024-03-17T02:52:58;454.40;;;426.50;;
19940;SDS011;10132;50.864;5.176;2024-03-17T02:55:05;398.87;;;375.57;;
19940;SDS011;10132;50.864;5.176;2024-03-17T02:57:07;422.87;;;396.80;;
19940;SDS011;10132;50.864;5.176;2024-03-17T02:59:09;339.40;;;319.93;;
19940;SDS011;10132;50.864;5.176;2024-03-17T03:01:11;336.10;;;316.30;;
19940;SDS011;10132;50.864;5.176;2024-03-17T03:03:13;351.10;;;330.07;;
19940;SDS011;10132;50.864;5.176;2024-03-17T03:05:14;428.87;;;399.50;;
19940;SDS011;10132;50.864;5.176;2024-03-17T03:07:16;466.43;;;434.20;;
19940;SDS011;10132;50.864;5.176;2024-03-17T03:09:18;447.73;;;417.50;;
19940;SDS011;10132;50.864;5.176;2024-03-17T03:11:22;431.23;;;404.47;;
19940;SDS011;10132;50.864;5.176;2024-03-17T03:13:24;534.33;;;499.50;;
19940;SDS011;10132;50.864;5.176;2024-03-17T03:15:26;404.10;;;379.13;;
19940;SDS011;10132;50.864;5.176;2024-03-17T03:17:27;391.90;;;369.20;;
19940;SDS011;10132;50.864;5.176;2024-03-17T03:19:29;343.57;;;323.97;;
19940;SDS011;10132;50.864;5.176;2024-03-17T03:21:31;428.63;;;402.73;;
19940;SDS011;10132;50.864;5.176;2024-03-17T03:23:32;527.20;;;491.90;;
19940;SDS011;10132;50.864;5.176;2024-03-17T03:25:34;399.27;;;376.10;;
19940;SDS011;10132;50.864;5.176;2024-03-17T03:27:38;522.00;;;488.17;;
19940;SDS011;10132;50.864;5.176;2024-03-17T03:29:40;468.67;;;439.20;;
19940;SDS011;10132;50.864;5.176;2024-03-17T03:31:42;465.50;;;435.57;;
19940;SDS011;10132;50.864;5.176;2024-03-17T03:33:44;493.17;;;462.00;;
19940;SDS011;10132;50.864;5.176;2024-03-17T03:35:46;484.53;;;452.90;;
19940;SDS011;10132;50.864;5.176;2024-03-17T03:37:49;344.10;;;323.17;;
19940;SDS011;10132;50.864;5.176;2024-03-17T03:39:51;427.30;;;399.43;;
19940;SDS011;10132;50.864;5.176;2024-03-17T03:41:54;393.77;;;370.60;;
19940;SDS011;10132;50.864;5.176;2024-03-17T03:43:58;407.03;;;381.80;;
19940;SDS011;10132;50.864;5.176;2024-03-17T03:46:01;391.80;;;369.63;;
19940;SDS011;10132;50.864;5.176;2024-03-17T03:48:03;327.70;;;309.63;;
19940;SDS011;10132;50.864;5.176;2024-03-17T03:50:06;311.43;;;293.90;;
19940;SDS011;10132;50.864;5.176;2024-03-17T03:52:09;290.10;;;274.80;;
19940;SDS011;10132;50.864;5.176;2024-03-17T03:54:11;275.90;;;261.07;;
19940;SDS011;10132;50.864;5.176;2024-03-17T03:56:13;249.60;;;235.70;;
19940;SDS011;10132;50.864;5.176;2024-03-17T03:58:15;244.30;;;231.03;;
19940;SDS011;10132;50.864;5.176;2024-03-17T04:00:18;282.33;;;266.47;;
19940;SDS011;10132;50.864;5.176;2024-03-17T04:02:21;295.70;;;279.43;;
19940;SDS011;10132;50.864;5.176;2024-03-17T04:04:25;344.70;;;324.40;;
19940;SDS011;10132;50.864;5.176;2024-03-17T04:06:27;352.93;;;333.63;;
19940;SDS011;10132;50.864;5.176;2024-03-17T04:08:29;305.03;;;288.50;;
19940;SDS011;10132;50.864;5.176;2024-03-17T04:10:30;316.43;;;298.97;;
19940;SDS011;10132;50.864;5.176;2024-03-17T04:12:32;356.77;;;336.50;;
19940;SDS011;10132;50.864;5.176;2024-03-17T04:14:34;314.50;;;297.50;;
19940;SDS011;10132;50.864;5.176;2024-03-17T04:16:37;341.90;;;323.57;;
19940;SDS011;10132;50.864;5.176;2024-03-17T04:18:40;365.27;;;344.90;;
19940;SDS011;10132;50.864;5.176;2024-03-17T04:20:42;379.23;;;357.03;;
19940;SDS011;10132;50.864;5.176;2024-03-17T04:22:44;389.53;;;367.53;;
19940;SDS011;10132;50.864;5.176;2024-03-17T04:24:48;368.20;;;347.17;;
19940;SDS011;10132;50.864;5.176;2024-03-17T04:26:53;411.40;;;384.60;;
19940;SDS011;10132;50.864;5.176;2024-03-17T04:28:55;392.17;;;368.97;;
19940;SDS011;10132;50.864;5.176;2024-03-17T04:31:03;369.93;;;348.97;;
19940;SDS011;10132;50.864;5.176;2024-03-17T04:33:07;448.57;;;422.40;;
19940;SDS011;10132;50.864;5.176;2024-03-17T04:35:08;395.47;;;372.47;;
19940;SDS011;10132;50.864;5.176;2024-03-17T04:37:10;396.00;;;372.87;;
19940;SDS011;10132;50.864;5.176;2024-03-17T04:39:12;418.57;;;392.00;;
19940;SDS011;10132;50.864;5.176;2024-03-17T04:41:15;405.87;;;380.53;;
19940;SDS011;10132;50.864;5.176;2024-03-17T04:43:17;417.53;;;391.40;;
19940;SDS011;10132;50.864;5.176;2024-03-17T04:45:27;448.93;;;420.10;;
19940;SDS011;10132;50.864;5.176;2024-03-17T04:47:29;423.97;;;395.77;;
19940;SDS011;10132;50.864;5.176;2024-03-17T04:49:32;487.20;;;454.40;;
19940;SDS011;10132;50.864;5.176;2024-03-17T04:51:36;446.00;;;417.60;;
19940;SDS011;10132;50.864;5.176;2024-03-17T04:53:37;484.10;;;451.40;;
19940;SDS011;10132;50.864;5.176;2024-03-17T04:55:41;453.07;;;423.43;;
19940;SDS011;10132;50.864;5.176;2024-03-17T04:57:43;439.33;;;411.93;;
19940;SDS011;10132;50.864;5.176;2024-03-17T04:59:45;482.80;;;452.33;;
19940;SDS011;10132;50.864;5.176;2024-03-17T05:01:47;512.53;;;480.37;;
19940;SDS011;10132;50.864;5.176;2024-03-17T05:03:50;510.13;;;476.37;;
19940;SDS011;10132;50.864;5.176;2024-03-17T05:05:59;467.83;;;437.50;;
19940;SDS011;10132;50.864;5.176;2024-03-17T05:08:01;409.03;;;383.37;;
19940;SDS011;10132;50.864;5.176;2024-03-17T05:10:04;386.60;;;361.63;;
19940;SDS011;10132;50.864;5.176;2024-03-17T05:12:07;456.93;;;427.50;;
19940;SDS011;10132;50.864;5.176;2024-03-17T05:14:09;478.47;;;446.90;;
19940;SDS011;10132;50.864;5.176;2024-03-17T05:16:11;437.70;;;409.60;;
19940;SDS011;10132;50.864;5.176;2024-03-17T05:18:13;409.87;;;383.77;;
19940;SDS011;10132;50.864;5.176;2024-03-17T05:20:15;408.13;;;383.10;;
19940;SDS011;10132;50.864;5.176;2024-03-17T05:22:19;402.90;;;379.97;;
19940;SDS011;10132;50.864;5.176;2024-03-17T05:24:20;477.13;;;448.43;;
19940;SDS011;10132;50.864;5.176;2024-03-17T05:26:22;410.53;;;386.60;;
19940;SDS011;10132;50.864;5.176;2024-03-17T05:28:24;444.67;;;418.27;;
19940;SDS011;10132;50.864;5.176;2024-03-17T05:30:27;489.63;;;458.50;;
19940;SDS011;10132;50.864;5.176;2024-03-17T05:32:31;441.67;;;414.53;;
19940;SDS011;10132;50.864;5.176;2024-03-17T05:34:33;548.00;;;515.10;;
19940;SDS011;10132;50.864;5.176;2024-03-17T05:36:35;520.93;;;488.20;;
19940;SDS011;10132;50.864;5.176;2024-03-17T05:38:39;496.03;;;462.03;;
19940;SDS011;10132;50.864;5.176;2024-03-17T05:40:41;594.20;;;550.10;;
19940;SDS011;10132;50.864;5.176;2024-03-17T05:42:42;549.87;;;511.37;;
19940;SDS011;10132;50.864;5.176;2024-03-17T05:44:44;484.90;;;453.90;;
19940;SDS011;10132;50.864;5.176;2024-03-17T05:46:50;561.20;;;520.93;;
19940;SDS011;10132;50.864;5.176;2024-03-17T05:48:53;510.83;;;476.13;;
19940;SDS011;10132;50.864;5.176;2024-03-17T05:50:55;503.40;;;470.43;;
19940;SDS011;10132;50.864;5.176;2024-03-17T05:52:57;559.50;;;521.07;;
19940;SDS011;10132;50.864;5.176;2024-03-17T05:55:01;539.07;;;502.73;;
19940;SDS011;10132;50.864;5.176;2024-03-17T05:57:03;503.90;;;469.97;;
19940;SDS011;10132;50.864;5.176;2024-03-17T05:59:05;559.67;;;520.67;;
19940;SDS011;10132;50.864;5.176;2024-03-17T06:01:07;514.80;;;479.97;;
19940;SDS011;10132;50.864;5.176;2024-03-17T06:03:08;486.97;;;455.13;;
19940;SDS011;10132;50.864;5.176;2024-03-17T06:05:10;484.30;;;452.47;;
19940;SDS011;10132;50.864;5.176;2024-03-17T06:07:14;433.67;;;406.90;;
19940;SDS011;10132;50.864;5.176;2024-03-17T06:09:16;499.23;;;467.30;;
19940;SDS011;10132;50.864;5.176;2024-03-17T06:11:21;471.03;;;442.63;;
19940;SDS011;10132;50.864;5.176;2024-03-17T06:13:23;512.33;;;478.30;;
19940;SDS011;10132;50.864;5.176;2024-03-17T06:15:25;498.30;;;465.67;;
19940;SDS011;10132;50.864;5.176;2024-03-17T06:17:27;543.33;;;506.33;;
19940;SDS011;10132;50.864;5.176;2024-03-17T06:19:30;566.27;;;526.37;;
19940;SDS011;10132;50.864;5.176;2024-03-17T06:21:32;532.47;;;497.47;;
19940;SDS011;10132;50.864;5.176;2024-03-17T06:23:34;601.10;;;559.97;;
19940;SDS011;10132;50.864;5.176;2024-03-17T06:25:39;528.30;;;494.60;;
19940;SDS011;10132;50.864;5.176;2024-03-17T06:27:43;562.30;;;525.03;;
19940;SDS011;10132;50.864;5.176;2024-03-17T06:29:45;570.97;;;532.70;;
19940;SDS011;10132;50.864;5.176;2024-03-17T06:31:46;576.50;;;536.97;;
19940;SDS011;10132;50.864;5.176;2024-03-17T06:33:49;542.33;;;506.63;;
19940;SDS011;10132;50.864;5.176;2024-03-17T06:35:51;543.40;;;509.53;;
19940;SDS011;10132;50.864;5.176;2024-03-17T06:37:53;552.70;;;516.37;;
19940;SDS011;10132;50.864;5.176;2024-03-17T06:39:54;518.83;;;484.83;;
19940;SDS011;10132;50.864;5.176;2024-03-17T06:41:56;481.83;;;452.20;;
19940;SDS011;10132;50.864;5.176;2024-03-17T06:43:59;500.30;;;470.07;;
19940;SDS011;10132;50.864;5.176;2024-03-17T06:46:01;428.27;;;403.03;;
19940;SDS011;10132;50.864;5.176;2024-03-17T06:48:04;407.60;;;383.33;;
19940;SDS011;10132;50.864;5.176;2024-03-17T06:50:07;444.83;;;417.20;;
19940;SDS011;10132;50.864;5.176;2024-03-17T06:52:10;374.70;;;352.93;;
19940;SDS011;10132;50.864;5.176;2024-03-17T06:54:12;353.77;;;333.80;;
19940;SDS011;10132;50.864;5.176;2024-03-17T06:56:14;280.63;;;264.93;;
19940;SDS011;10132;50.864;5.176;2024-03-17T06:58:16;302.07;;;285.07;;
19940;SDS011;10132;50.864;5.176;2024-03-17T07:00:21;291.03;;;275.07;;
19940;SDS011;10132;50.864;5.176;2024-03-17T07:02:25;285.00;;;269.20;;
19940;SDS011;10132;50.864;5.176;2024-03-17T07:04:27;247.07;;;233.27;;
19940;SDS011;10132;50.864;5.176;2024-03-17T07:06:29;271.20;;;256.23;;
19940;SDS011;10132;50.864;5.176;2024-03-17T07:08:31;258.77;;;244.80;;
19940;SDS011;10132;50.864;5.176;2024-03-17T07:10:33;240.70;;;227.53;;
19940;SDS011;10132;50.864;5.176;2024-03-17T07:12:34;266.73;;;251.93;;
19940;SDS011;10132;50.864;5.176;2024-03-17T07:14:36;233.00;;;219.77;;
19940;SDS011;10132;50.864;5.176;2024-03-17T07:16:39;261.47;;;247.17;;
19940;SDS011;10132;50.864;5.176;2024-03-17T07:18:41;247.43;;;233.73;;
19940;SDS011;10132;50.864;5.176;2024-03-17T07:20:43;300.80;;;283.07;;
19940;SDS011;10132;50.864;5.176;2024-03-17T07:22:48;273.43;;;257.70;;
19940;SDS011;10132;50.864;5.176;2024-03-17T07:24:51;322.33;;;304.07;;
19940;SDS011;10132;50.864;5.176;2024-03-17T07:26:55;247.30;;;232.77;;
19940;SDS011;10132;50.864;5.176;2024-03-17T07:28:57;283.27;;;267.20;;
19940;SDS011;10132;50.864;5.176;2024-03-17T07:30:58;284.53;;;266.63;;
19940;SDS011;10132;50.864;5.176;2024-03-17T07:33:03;291.27;;;273.70;;
19940;SDS011;10132;50.864;5.176;2024-03-17T07:35:05;272.30;;;255.80;;
19940;SDS011;10132;50.864;5.176;2024-03-17T07:37:07;285.77;;;268.30;;
19940;SDS011;10132;50.864;5.176;2024-03-17T07:39:08;307.40;;;288.00;;
19940;SDS011;10132;50.864;5.176;2024-03-17T07:41:12;369.73;;;346.47;;
19940;SDS011;10132;50.864;5.176;2024-03-17T07:43:14;367.37;;;344.40;;
19940;SDS011;10132;50.864;5.176;2024-03-17T07:45:16;286.73;;;269.37;;
19940;SDS011;10132;50.864;5.176;2024-03-17T07:47:18;322.10;;;301.63;;
19940;SDS011;10132;50.864;5.176;2024-03-17T07:49:21;237.47;;;224.00;;
19940;SDS011;10132;50.864;5.176;2024-03-17T07:51:23;243.60;;;229.90;;
19940;SDS011;10132;50.864;5.176;2024-03-17T07:53:25;215.50;;;203.47;;
19940;SDS011;10132;50.864;5.176;2024-03-17T07:55:27;238.80;;;225.60;;
19940;SDS011;10132;50.864;5.176;2024-03-17T07:57:28;301.50;;;282.87;;
19940;SDS011;10132;50.864;5.176;2024-03-17T07:59:30;252.07;;;237.63;;
19940;SDS011;10132;50.864;5.176;2024-03-17T08:01:31;240.13;;;226.23;;
19940;SDS011;10132;50.864;5.176;2024-03-17T08:03:33;256.33;;;242.13;;
19940;SDS011;10132;50.864;5.176;2024-03-17T08:05:37;251.40;;;237.50;;
19940;SDS011;10132;50.864;5.176;2024-03-17T08:07:39;231.50;;;218.80;;
19940;SDS011;10132;50.864;5.176;2024-03-17T08:09:42;268.40;;;252.57;;
19940;SDS011;10132;50.864;5.176;2024-03-17T08:11:44;181.47;;;171.10;;
19940;SDS011;10132;50.864;5.176;2024-03-17T08:13:46;203.23;;;192.13;;
19940;SDS011;10132;50.864;5.176;2024-03-17T08:15:54;242.97;;;229.60;;
19940;SDS011;10132;50.864;5.176;2024-03-17T08:17:56;209.77;;;198.37;;
19940;SDS011;10132;50.864;5.176;2024-03-17T08:19:58;188.60;;;178.37;;
19940;SDS011;10132;50.864;5.176;2024-03-17T08:22:01;182.30;;;172.00;;
19940;SDS011;10132;50.864;5.176;2024-03-17T08:24:03;205.27;;;194.27;;
19940;SDS011;10132;50.864;5.176;2024-03-17T08:26:05;289.43;;;272.30;;
19940;SDS011;10132;50.864;5.176;2024-03-17T08:28:07;266.80;;;251.43;;
19940;SDS011;10132;50.864;5.176;2024-03-17T08:30:08;285.63;;;268.57;;
19940;SDS011;10132;50.864;5.176;2024-03-17T08:32:11;222.37;;;210.00;;
19940;SDS011;10132;50.864;5.176;2024-03-17T08:34:14;321.80;;;302.27;;
19940;SDS011;10132;50.864;5.176;2024-03-17T08:36:16;218.10;;;206.43;;
19940;SDS011;10132;50.864;5.176;2024-03-17T08:38:21;192.83;;;182.37;;
19940;SDS011;10132;50.864;5.176;2024-03-17T08:40:23;126.00;;;118.73;;
19940;SDS011;10132;50.864;5.176;2024-03-17T08:42:25;89.20;;;84.20;;
19940;SDS011;10132;50.864;5.176;2024-03-17T08:44:27;213.10;;;200.60;;
19940;SDS011;10132;50.864;5.176;2024-03-17T08:46:29;116.27;;;109.80;;
19940;SDS011;10132;50.864;5.176;2024-03-17T08:48:32;218.83;;;206.60;;
19940;SDS011;10132;50.864;5.176;2024-03-17T08:50:35;270.10;;;254.80;;
19940;SDS011;10132;50.864;5.176;2024-03-17T08:52:36;247.37;;;233.83;;
19940;SDS011;10132;50.864;5.176;2024-03-17T08:54:39;171.50;;;161.83;;
19940;SDS011;10132;50.864;5.176;2024-03-17T08:56:42;197.47;;;186.00;;
19940;SDS011;10132;50.864;5.176;2024-03-17T08:58:44;236.17;;;222.23;;
19940;SDS011;10132;50.864;5.176;2024-03-17T09:00:46;233.10;;;219.93;;
19940;SDS011;10132;50.864;5.176;2024-03-17T09:02:48;219.17;;;207.40;;
19940;SDS011;10132;50.864;5.176;2024-03-17T09:04:50;245.23;;;230.50;;
19940;SDS011;10132;50.864;5.176;2024-03-17T09:06:52;221.70;;;209.33;;
19940;SDS011;10132;50.864;5.176;2024-03-17T09:08:56;190.10;;;178.23;;
19940;SDS011;10132;50.864;5.176;2024-03-17T09:10:59;104.57;;;98.30;;
19940;SDS011;10132;50.864;5.176;2024-03-17T09:13:01;112.17;;;105.30;;
19940;SDS011;10132;50.864;5.176;2024-03-17T09:15:03;132.23;;;124.37;;
19940;SDS011;10132;50.864;5.176;2024-03-17T09:17:06;89.00;;;83.87;;
19940;SDS011;10132;50.864;5.176;2024-03-17T09:19:08;170.33;;;158.37;;
19940;SDS011;10132;50.864;5.176;2024-03-17T09:21:10;180.37;;;169.70;;
19940;SDS011;10132;50.864;5.176;2024-03-17T09:23:14;231.53;;;216.77;;
19940;SDS011;10132;50.864;5.176;2024-03-17T09:25:16;132.60;;;124.13;;
19940;SDS011;10132;50.864;5.176;2024-03-17T09:27:19;114.57;;;107.73;;
19940;SDS011;10132;50.864;5.176;2024-03-17T09:29:22;217.00;;;202.97;;
19940;SDS011;10132;50.864;5.176;2024-03-17T09:31:25;93.03;;;87.60;;
19940;SDS011;10132;50.864;5.176;2024-03-17T09:33:28;172.67;;;162.27;;
19940;SDS011;10132;50.864;5.176;2024-03-17T09:35:30;196.90;;;186.53;;
19940;SDS011;10132;50.864;5.176;2024-03-17T09:37:32;160.97;;;151.53;;
19940;SDS011;10132;50.864;5.176;2024-03-17T09:39:34;197.50;;;186.53;;
19940;SDS011;10132;50.864;5.176;2024-03-17T09:41:36;208.43;;;196.77;;
19940;SDS011;10132;50.864;5.176;2024-03-17T09:43:41;192.33;;;180.97;;
19940;SDS011;10132;50.864;5.176;2024-03-17T09:45:44;185.80;;;174.30;;
19940;SDS011;10132;50.864;5.176;2024-03-17T09:47:45;203.67;;;192.03;;
19940;SDS011;10132;50.864;5.176;2024-03-17T09:49:47;163.97;;;153.97;;
19940;SDS011;10132;50.864;5.176;2024-03-17T09:51:49;204.43;;;191.37;;
19940;SDS011;10132;50.864;5.176;2024-03-17T09:53:56;205.67;;;192.13;;
19940;SDS011;10132;50.864;5.176;2024-03-17T09:55:57;184.50;;;173.13;;
19940;SDS011;10132;50.864;5.176;2024-03-17T09:58:00;220.93;;;207.73;;
19940;SDS011;10132;50.864;5.176;2024-03-17T10:00:02;180.27;;;169.70;;
19940;SDS011;10132;50.864;5.176;2024-03-17T10:02:14;192.03;;;179.80;;
19940;SDS011;10132;50.864;5.176;2024-03-17T10:04:30;95.77;;;90.60;;
19940;SDS011;10132;50.864;5.176;2024-03-17T10:06:33;135.23;;;127.30;;
19940;SDS011;10132;50.864;5.176;2024-03-17T10:08:46;116.90;;;109.50;;
19940;SDS011;10132;50.864;5.176;2024-03-17T10:10:52;147.33;;;139.27;;
19940;SDS011;10132;50.864;5.176;2024-03-17T10:12:53;131.73;;;124.37;;
19940;SDS011;10132;50.864;5.176;2024-03-17T10:14:58;109.50;;;103.33;;
19940;SDS011;10132;50.864;5.176;2024-03-17T10:17:02;127.10;;;120.00;;
19940;SDS011;10132;50.864;5.176;2024-03-17T10:19:08;167.07;;;157.60;;
19940;SDS011;10132;50.864;5.176;2024-03-17T10:21:18;162.00;;;152.47;;
19940;SDS011;10132;50.864;5.176;2024-03-17T10:23:26;196.07;;;183.70;;
19940;SDS011;10132;50.864;5.176;2024-03-17T10:25:28;116.43;;;110.00;;
19940;SDS011;10132;50.864;5.176;2024-03-17T10:27:31;140.07;;;132.33;;
19940;SDS011;10132;50.864;5.176;2024-03-17T10:29:33;155.67;;;146.47;;
19940;SDS011;10132;50.864;5.176;2024-03-17T10:31:38;272.77;;;253.80;;
19940;SDS011;10132;50.864;5.176;2024-03-17T10:33:41;101.17;;;95.30;;
19940;SDS011;10132;50.864;5.176;2024-03-17T10:35:43;160.13;;;151.00;;
19940;SDS011;10132;50.864;5.176;2024-03-17T10:37:53;119.97;;;113.47;;
19940;SDS011;10132;50.864;5.176;2024-03-17T10:39:55;126.40;;;119.60;;
19940;SDS011;10132;50.864;5.176;2024-03-17T10:41:59;114.17;;;108.00;;
19940;SDS011;10132;50.864;5.176;2024-03-17T10:44:02;113.33;;;107.23;;
19940;SDS011;10132;50.864;5.176;2024-03-17T10:46:04;149.63;;;141.17;;
19940;SDS011;10132;50.864;5.176;2024-03-17T10:48:06;122.23;;;115.57;;
19940;SDS011;10132;50.864;5.176;2024-03-17T10:50:12;157.90;;;149.10;;
19940;SDS011;10132;50.864;5.176;2024-03-17T10:52:18;84.10;;;79.37;;
19940;SDS011;10132;50.864;5.176;2024-03-17T10:54:21;152.50;;;143.87;;
19940;SDS011;10132;50.864;5.176;2024-03-17T10:56:26;109.83;;;103.90;;
19940;SDS011;10132;50.864;5.176;2024-03-17T10:58:31;61.33;;;57.83;;
19940;SDS011;10132;50.864;5.176;2024-03-17T11:00:35;107.60;;;101.87;;
19940;SDS011;10132;50.864;5.176;2024-03-17T11:02:39;65.20;;;61.53;;
19940;SDS011;10132;50.864;5.176;2024-03-17T11:04:42;64.03;;;60.73;;
19940;SDS011;10132;50.864;5.176;2024-03-17T11:06:45;73.43;;;69.40;;
19940;SDS011;10132;50.864;5.176;2024-03-17T11:08:48;69.97;;;65.93;;
19940;SDS011;10132;50.864;5.176;2024-03-17T11:10:51;112.80;;;106.73;;
19940;SDS011;10132;50.864;5.176;2024-03-17T11:12:55;90.00;;;85.03;;
19940;SDS011;10132;50.864;5.176;2024-03-17T11:17:33;72.40;;;68.30;;
19940;SDS011;10132;50.864;5.176;2024-03-17T11:19:35;121.70;;;114.77;;
19940;SDS011;10132;50.864;5.176;2024-03-17T11:21:37;102.10;;;96.13;;
19940;SDS011;10132;50.864;5.176;2024-03-17T11:23:41;158.23;;;149.43;;
19940;SDS011;10132;50.864;5.176;2024-03-17T11:25:44;134.60;;;126.20;;
19940;SDS011;10132;50.864;5.176;2024-03-17T11:27:53;194.17;;;183.40;;
19940;SDS011;10132;50.864;5.176;2024-03-17T11:29:55;150.57;;;142.17;;
19940;SDS011;10132;50.864;5.176;2024-03-17T11:32:24;141.70;;;133.83;;
19940;SDS011;10132;50.864;5.176;2024-03-17T11:34:37;97.70;;;92.23;;
19940;SDS011;10132;50.864;5.176;2024-03-17T11:36:39;122.13;;;115.13;;
19940;SDS011;10132;50.864;5.176;2024-03-17T11:38:52;104.17;;;98.33;;
19940;SDS011;10132;50.864;5.176;2024-03-17T11:40:53;174.50;;;164.23;;
19940;SDS011;10132;50.864;5.176;2024-03-17T11:43:34;85.73;;;80.80;;